Time;durP1;ratioP1;P1;durP2;ratioP2;P2;SDS_P1;SDS_P2;PMS_P1;PMS_P2;Temp;Humidity;BMP_temperature;BMP_pressure;BME280_temperature;BME280_humidity;BME280_pressure;Samples;Min_cycle;Max_cycle;Signal;HPM_P1;HPM_P2
2021/09/08 00:05:59;;;;;;;9.15;5.07;;;16.10;99.90;;;;;;12514197;28;20143;-37
2021/09/08 00:12:01;;;;;;;8.30;4.80;;;16.10;99.90;;;;;;12511903;28;20098;-37
2021/09/08 00:18:03;;;;;;;8.05;4.50;;;15.80;99.90;;;;;;12509459;28;20190;-37
2021/09/08 00:24:08;;;;;;;7.00;4.25;;;15.80;99.90;;;;;;12507318;28;20048;-37
2021/09/08 00:30:11;;;;;;;6.63;4.45;;;15.80;99.90;;;;;;12507196;28;20045;-37
2021/09/08 00:36:13;;;;;;;7.03;4.30;;;15.80;99.90;;;;;;12509433;28;20164;-37
2021/09/08 00:42:17;;;;;;;7.10;4.75;;;15.60;99.90;;;;;;12506946;28;20053;-37
2021/09/08 00:48:20;;;;;;;8.10;4.70;;;15.60;99.90;;;;;;12510466;28;20560;-37
2021/09/08 00:54:23;;;;;;;9.05;4.88;;;15.60;99.90;;;;;;12489404;28;20041;-37
2021/09/08 01:00:25;;;;;;;10.50;4.90;;;15.50;99.90;;;;;;12503475;28;20102;-37
2021/09/08 01:06:26;;;;;;;9.93;4.78;;;15.60;99.90;;;;;;12506245;28;20127;-37
2021/09/08 01:12:28;;;;;;;6.82;4.57;;;15.40;99.90;;;;;;12482763;28;20128;-37
2021/09/08 01:18:31;;;;;;;7.07;4.68;;;15.40;99.90;;;;;;12509242;28;20151;-37
2021/09/08 01:24:32;;;;;;;7.63;5.20;;;15.50;99.90;;;;;;12507946;28;20101;-37
2021/09/08 01:30:41;;;;;;;7.85;4.68;;;15.40;99.90;;;;;;12498173;28;20057;-36
2021/09/08 01:36:43;;;;;;;7.35;5.10;;;15.30;99.90;;;;;;12509439;28;20098;-37
2021/09/08 01:42:46;;;;;;;9.18;4.80;;;15.20;99.90;;;;;;12506904;28;20049;-38
2021/09/08 01:48:49;;;;;;;8.88;4.90;;;15.20;99.90;;;;;;12506936;28;20045;-38
2021/09/08 01:54:51;;;;;;;8.00;4.97;;;15.30;99.90;;;;;;12505414;28;20451;-37
2021/09/08 02:00:53;;;;;;;9.13;4.57;;;15.30;99.90;;;;;;12506562;28;20123;-37
2021/09/08 02:06:55;;;;;;;9.52;5.18;;;15.20;99.90;;;;;;12484625;28;20103;-37
2021/09/08 02:12:58;;;;;;;8.60;5.00;;;15.20;99.90;;;;;;12500763;28;20049;-37
2021/09/08 02:19:00;;;;;;;12.43;4.90;;;15.20;99.90;;;;;;12498626;28;20145;-37
2021/09/08 02:25:03;;;;;;;7.93;5.05;;;15.20;99.90;;;;;;12496374;28;20641;-38
2021/09/08 02:31:06;;;;;;;8.00;5.03;;;15.10;99.90;;;;;;12489559;28;20055;-37
2021/09/08 02:37:08;;;;;;;9.23;4.88;;;15.00;99.90;;;;;;12502700;28;20049;-37
2021/09/08 02:43:10;;;;;;;10.20;4.82;;;15.00;99.90;;;;;;12502987;28;20089;-37
2021/09/08 02:49:12;;;;;;;8.52;5.18;;;15.00;99.90;;;;;;12498062;28;20045;-39
2021/09/08 02:55:14;;;;;;;9.70;5.57;;;15.00;99.90;;;;;;12506475;28;20455;-37
2021/09/08 03:01:16;;;;;;;9.95;5.63;;;14.90;99.90;;;;;;12511365;28;20666;-37
2021/09/08 03:07:18;;;;;;;7.97;5.68;;;14.80;99.90;;;;;;12510552;28;20177;-37
2021/09/08 03:13:20;;;;;;;8.40;5.80;;;14.80;99.90;;;;;;12509277;28;20848;-37
2021/09/08 03:19:22;;;;;;;9.68;5.70;;;14.80;99.90;;;;;;12511583;28;20057;-37
2021/09/08 03:25:24;;;;;;;8.88;6.20;;;14.60;99.90;;;;;;12508862;28;20045;-37
2021/09/08 03:31:26;;;;;;;9.35;5.65;;;14.60;99.90;;;;;;12509142;28;20719;-37
2021/09/08 03:37:29;;;;;;;10.45;5.90;;;14.50;99.90;;;;;;12508094;28;20171;-38
2021/09/08 03:43:31;;;;;;;9.10;5.93;;;14.60;99.90;;;;;;12506488;28;20535;-37
2021/09/08 03:49:33;;;;;;;9.65;6.10;;;14.50;99.90;;;;;;12509128;28;20501;-36
2021/09/08 03:55:34;;;;;;;10.35;5.88;;;14.40;99.90;;;;;;12507842;28;20110;-38
2021/09/08 04:01:36;;;;;;;10.88;5.82;;;14.30;99.90;;;;;;12505817;28;20082;-37
2021/09/08 04:07:39;;;;;;;8.40;5.97;;;14.30;99.90;;;;;;12492142;28;20049;-38
2021/09/08 04:13:41;;;;;;;11.02;6.70;;;14.10;99.90;;;;;;12505101;28;20056;-36
2021/09/08 04:19:43;;;;;;;9.77;6.72;;;14.20;99.90;;;;;;12509493;28;20410;-38
2021/09/08 04:25:45;;;;;;;9.45;6.45;;;14.00;99.90;;;;;;12505179;28;20050;-37
2021/09/08 04:31:47;;;;;;;12.15;6.57;;;14.10;99.90;;;;;;12507337;28;20464;-37
2021/09/08 04:37:49;;;;;;;9.95;7.05;;;14.00;99.90;;;;;;12508875;28;20053;-37
2021/09/08 04:43:51;;;;;;;12.95;6.80;;;14.00;99.90;;;;;;12514904;28;20524;-37
2021/09/08 04:49:54;;;;;;;10.20;6.10;;;14.00;99.90;;;;;;12508222;28;20072;-37
2021/09/08 04:55:57;;;;;;;11.02;7.45;;;14.10;99.90;;;;;;12503942;28;20049;-37
2021/09/08 05:01:59;;;;;;;13.27;7.78;;;14.00;99.90;;;;;;12487622;28;20084;-37
2021/09/08 05:08:02;;;;;;;11.77;7.13;;;13.90;99.90;;;;;;12503089;28;20065;-37
2021/09/08 05:14:04;;;;;;;10.23;7.05;;;13.90;99.90;;;;;;12500338;28;20049;-37
2021/09/08 05:20:07;;;;;;;13.05;7.45;;;14.00;99.90;;;;;;12498891;28;20147;-37
2021/09/08 05:26:09;;;;;;;11.70;7.28;;;14.10;99.90;;;;;;12506796;28;20701;-37
2021/09/08 05:32:12;;;;;;;12.90;7.53;;;14.20;99.90;;;;;;12504455;28;20048;-38
2021/09/08 05:38:18;;;;;;;13.77;7.10;;;14.20;99.90;;;;;;12505975;28;20082;-37
2021/09/08 05:44:20;;;;;;;10.65;7.55;;;14.30;99.90;;;;;;12502516;28;20107;-38
2021/09/08 05:50:23;;;;;;;15.80;8.27;;;14.40;99.90;;;;;;12503072;28;20135;-37
2021/09/08 05:56:25;;;;;;;14.02;8.68;;;14.50;99.90;;;;;;12501603;28;20060;-38
2021/09/08 06:02:30;;;;;;;12.75;8.43;;;14.40;99.90;;;;;;12498946;28;20045;-37
2021/09/08 06:08:32;;;;;;;11.50;7.45;;;14.50;99.90;;;;;;12504915;28;20044;-37
2021/09/08 06:14:37;;;;;;;17.13;8.98;;;14.70;99.90;;;;;;12501323;28;20045;-37
2021/09/08 06:20:39;;;;;;;13.60;7.57;;;14.80;99.90;;;;;;12501957;28;20036;-37
2021/09/08 06:26:41;;;;;;;11.85;6.78;;;14.90;99.90;;;;;;12503057;28;20045;-37
2021/09/08 06:32:43;;;;;;;10.38;6.60;;;14.90;99.90;;;;;;12511702;28;20441;-37
2021/09/08 06:38:45;;;;;;;13.07;7.03;;;14.90;99.90;;;;;;12511232;28;20069;-37
2021/09/08 06:44:53;;;;;;;9.93;6.43;;;14.90;99.90;;;;;;12509072;28;20498;-38
2021/09/08 06:50:55;;;;;;;11.02;7.70;;;15.00;99.90;;;;;;12511275;28;20164;-37
2021/09/08 06:56:56;;;;;;;10.45;6.82;;;15.10;99.90;;;;;;12515504;28;20092;-37
2021/09/08 07:02:59;;;;;;;14.13;7.30;;;15.20;99.90;;;;;;12511361;28;20045;-37
2021/09/08 07:09:02;;;;;;;12.87;6.87;;;15.30;99.90;;;;;;12505099;28;20131;-37
2021/09/08 07:15:05;;;;;;;12.40;7.95;;;15.40;99.90;;;;;;12509122;28;20037;-37
2021/09/08 07:21:09;;;;;;;17.88;9.20;;;15.70;99.90;;;;;;12509657;28;20551;-37
2021/09/08 07:27:10;;;;;;;13.98;8.85;;;16.20;99.90;;;;;;12510612;28;20049;-37
2021/09/08 07:33:13;;;;;;;13.10;9.07;;;16.90;99.90;;;;;;12506914;28;20046;-38
2021/09/08 07:39:15;;;;;;;15.55;9.02;;;17.30;99.90;;;;;;12510421;28;20479;-37
2021/09/08 07:45:17;;;;;;;13.68;8.80;;;17.60;99.90;;;;;;12507135;28;20071;-37
2021/09/08 07:51:20;;;;;;;14.25;8.55;;;17.80;99.90;;;;;;12511200;28;20169;-38
2021/09/08 07:57:22;;;;;;;14.18;8.55;;;18.10;99.90;;;;;;12510104;28;20055;-37
2021/09/08 08:03:24;;;;;;;14.20;9.38;;;18.40;99.90;;;;;;12506339;28;20094;-37
2021/09/08 08:09:26;;;;;;;14.45;9.00;;;18.70;99.90;;;;;;12507492;28;20075;-38
2021/09/08 08:15:28;;;;;;;13.25;8.32;;;19.00;99.90;;;;;;12506616;28;20057;-38
2021/09/08 08:21:31;;;;;;;11.65;8.27;;;19.20;99.90;;;;;;12508146;28;20087;-37
2021/09/08 08:27:34;;;;;;;13.32;8.10;;;19.30;99.90;;;;;;12507523;28;20110;-37
2021/09/08 08:33:36;;;;;;;13.52;7.78;;;19.50;99.90;;;;;;12507353;28;20045;-37
2021/09/08 08:39:38;;;;;;;9.40;6.95;;;19.70;99.90;;;;;;12508158;28;20163;-37
2021/09/08 08:45:41;;;;;;;11.68;7.72;;;19.90;99.90;;;;;;12504513;28;20041;-37
2021/09/08 08:51:43;;;;;;;12.52;6.93;;;20.10;99.90;;;;;;12506432;28;20041;-37
2021/09/08 08:57:48;;;;;;;10.98;7.30;;;20.30;99.90;;;;;;12508345;28;20053;-37
2021/09/08 09:04:03;;;;;;;12.23;7.03;;;20.50;99.90;;;;;;12504364;28;20076;-38
2021/09/08 09:10:13;;;;;;;12.55;7.68;;;20.70;99.90;;;;;;12508198;28;20064;-38
2021/09/08 09:16:16;;;;;;;12.15;6.38;;;20.80;99.90;;;;;;12506331;28;20068;-37
2021/09/08 09:22:19;;;;;;;10.20;6.50;;;21.00;99.90;;;;;;12505371;28;20144;-38
2021/09/08 09:28:21;;;;;;;11.25;6.72;;;21.20;99.90;;;;;;12507434;28;20048;-39
2021/09/08 09:34:28;;;;;;;10.10;6.60;;;21.40;99.90;;;;;;12503324;28;20095;-38
2021/09/08 09:40:36;;;;;;;11.65;6.28;;;21.50;99.90;;;;;;12504364;28;20052;-38
2021/09/08 09:46:40;;;;;;;9.55;6.18;;;21.80;99.90;;;;;;12505303;28;20049;-38
2021/09/08 09:52:47;;;;;;;10.30;6.03;;;22.00;99.90;;;;;;12504514;28;20052;-38
2021/09/08 09:58:49;;;;;;;9.38;6.03;;;22.20;99.90;;;;;;12504979;28;20102;-40
2021/09/08 10:04:52;;;;;;;8.32;5.47;;;22.50;99.90;;;;;;12504391;28;20552;-38
2021/09/08 10:10:56;;;;;;;8.13;5.75;;;22.40;99.90;;;;;;12508802;28;20049;-35
2021/09/08 10:17:02;;;;;;;9.10;5.60;;;22.70;99.90;;;;;;12504659;28;20133;-41
2021/09/08 10:23:10;;;;;;;11.85;6.10;;;22.70;99.90;;;;;;12502407;28;20129;-38
2021/09/08 10:29:14;;;;;;;9.45;5.82;;;22.90;99.90;;;;;;12501546;28;20820;-38
2021/09/08 10:35:18;;;;;;;8.77;5.82;;;23.20;99.90;;;;;;12503653;28;20048;-38
2021/09/08 10:41:21;;;;;;;11.02;6.10;;;23.50;99.90;;;;;;12505196;28;20090;-38
2021/09/08 10:47:37;;;;;;;;;;;23.80;99.90;;;;;;12501412;28;20053;-38
2021/09/08 10:53:39;;;;;;;9.00;6.00;;;24.00;99.90;;;;;;12502274;28;20061;-38
2021/09/08 11:00:01;;;;;;;9.35;5.72;;;24.10;99.90;;;;;;12506294;28;20048;-38
2021/09/08 11:06:04;;;;;;;9.57;5.68;;;24.20;99.90;;;;;;12503872;28;20084;-39
2021/09/08 11:12:07;;;;;;;9.63;5.38;;;24.60;99.90;;;;;;12505985;28;20182;-38
2021/09/08 11:18:12;;;;;;;8.73;5.97;;;24.90;99.90;;;;;;12512841;28;20060;-37
2021/09/08 11:24:17;;;;;;;7.55;5.60;;;24.80;99.90;;;;;;12514353;28;20057;-37
2021/09/08 11:30:20;;;;;;;9.07;5.75;;;25.00;99.90;;;;;;12514095;28;20057;-37
2021/09/08 11:36:29;;;;;;;6.80;4.82;;;25.30;99.90;;;;;;12515280;28;20041;-38
2021/09/08 11:42:41;;;;;;;7.40;4.45;;;25.50;99.90;;;;;;12512139;28;20105;-38
2021/09/08 11:48:45;;;;;;;6.87;4.83;;;25.50;99.90;;;;;;12510536;28;20089;-38
2021/09/08 11:54:48;;;;;;;9.70;5.55;;;25.70;99.90;;;;;;12508627;28;20056;-37
2021/09/08 12:00:58;;;;;;;8.38;5.10;;;25.60;99.90;;;;;;12511345;28;20045;-37
2021/09/08 12:07:03;;;;;;;11.75;5.38;;;25.80;99.90;;;;;;12489839;28;20497;-38
2021/09/08 12:13:06;;;;;;;7.20;4.97;;;25.70;99.90;;;;;;12511748;28;20056;-39
2021/09/08 12:19:13;;;;;;;7.50;4.78;;;25.40;99.90;;;;;;12510715;28;20053;-41
2021/09/08 12:25:19;;;;;;;9.10;5.18;;;25.80;99.90;;;;;;12511169;28;20049;-40
2021/09/08 12:31:22;;;;;;;7.13;4.72;;;26.00;99.90;;;;;;12503770;28;20140;-39
2021/09/08 12:37:24;;;;;;;7.18;4.88;;;26.00;99.90;;;;;;12509565;28;20080;-39
2021/09/08 12:43:31;;;;;;;7.70;4.95;;;25.70;99.90;;;;;;12512518;28;20071;-40
2021/09/08 12:49:35;;;;;;;7.40;5.13;;;25.70;99.90;;;;;;12511660;28;20044;-38
2021/09/08 12:55:38;;;;;;;8.77;4.70;;;26.10;99.90;;;;;;12508973;28;20048;-40
2021/09/08 13:01:41;;;;;;;8.25;4.30;;;25.90;99.90;;;;;;12507206;28;20077;-38
2021/09/08 13:07:49;;;;;;;5.70;3.85;;;26.10;99.90;;;;;;12507590;28;20073;-38
2021/09/08 13:13:51;;;;;;;7.05;4.18;;;26.40;99.90;;;;;;12506551;28;20587;-40
2021/09/08 13:19:53;;;;;;;6.75;3.80;;;25.70;99.90;;;;;;12509056;28;20068;-38
2021/09/08 13:25:59;;;;;;;5.57;3.50;;;26.10;99.90;;;;;;12507661;28;20052;-42
2021/09/08 13:32:01;;;;;;;7.13;4.00;;;25.40;99.90;;;;;;12505665;28;20060;-39
2021/09/08 13:38:04;;;;;;;5.57;3.65;;;25.40;99.90;;;;;;12495303;28;20057;-38
2021/09/08 13:44:12;;;;;;;5.93;3.90;;;25.70;99.90;;;;;;12504114;28;20378;-38
2021/09/08 13:50:14;;;;;;;5.47;3.70;;;25.60;99.90;;;;;;12511434;28;20159;-38
2021/09/08 13:56:17;;;;;;;4.60;3.60;;;25.60;99.90;;;;;;12509592;28;20072;-39
2021/09/08 14:02:19;;;;;;;6.30;3.83;;;25.20;99.90;;;;;;12508282;28;20041;-40
2021/09/08 14:08:28;;;;;;;7.82;3.60;;;25.20;99.90;;;;;;12504607;28;20051;-39
2021/09/08 14:14:31;;;;;;;5.22;3.28;;;25.10;99.90;;;;;;12504498;28;20053;-39
2021/09/08 14:20:33;;;;;;;6.17;3.20;;;25.00;99.90;;;;;;12506476;28;20045;-38
2021/09/08 14:26:36;;;;;;;7.77;3.27;;;24.90;99.90;;;;;;12508897;28;20291;-40
2021/09/08 14:32:38;;;;;;;7.70;2.90;;;25.00;99.90;;;;;;12502200;28;20451;-40
2021/09/08 14:38:40;;;;;;;4.67;3.00;;;25.10;99.90;;;;;;12508212;28;20049;-41
2021/09/08 14:44:43;;;;;;;11.27;2.97;;;25.00;99.90;;;;;;12501746;28;20691;-38
2021/09/08 14:50:45;;;;;;;6.87;3.00;;;25.30;99.90;;;;;;12512459;28;20098;-39
2021/09/08 14:56:47;;;;;;;4.10;2.77;;;25.30;99.90;;;;;;12511497;28;20386;-38
2021/09/08 15:02:49;;;;;;;6.38;2.97;;;25.50;99.90;;;;;;12506492;28;20884;-39
2021/09/08 15:08:52;;;;;;;6.32;3.00;;;25.30;99.90;;;;;;12514302;28;20072;-38
2021/09/08 15:14:54;;;;;;;4.13;2.90;;;25.30;99.90;;;;;;12511981;28;20041;-38
2021/09/08 15:20:56;;;;;;;7.00;3.10;;;25.80;99.90;;;;;;12510949;28;20107;-38
2021/09/08 15:27:01;;;;;;;5.85;3.60;;;25.70;99.90;;;;;;12518722;28;20148;-40
2021/09/08 15:33:03;;;;;;;5.60;3.65;;;25.30;99.90;;;;;;12510391;28;20048;-40
2021/09/08 15:39:06;;;;;;;5.15;3.60;;;25.30;99.90;;;;;;12515145;28;20068;-40
2021/09/08 15:45:09;;;;;;;6.60;4.00;;;25.60;99.90;;;;;;12510158;28;20049;-38
2021/09/08 15:51:11;;;;;;;6.68;3.75;;;25.80;99.90;;;;;;12514091;28;20448;-40
2021/09/08 15:57:13;;;;;;;5.90;3.35;;;25.70;99.90;;;;;;12511113;28;20067;-38
2021/09/08 16:03:15;;;;;;;11.60;3.83;;;25.20;99.90;;;;;;12509414;28;20061;-38
2021/09/08 16:09:18;;;;;;;5.33;3.63;;;25.10;99.90;;;;;;12511986;28;20041;-39
2021/09/08 16:15:21;;;;;;;5.47;3.85;;;25.20;99.90;;;;;;12510680;28;20080;-38
2021/09/08 16:21:23;;;;;;;5.40;3.33;;;25.10;99.90;;;;;;12512497;28;20136;-39
2021/09/08 16:27:26;;;;;;;5.60;3.83;;;25.30;99.90;;;;;;12512757;28;20048;-40
2021/09/08 16:33:28;;;;;;;7.70;4.32;;;25.30;99.90;;;;;;12507755;28;20041;-42
2021/09/08 16:39:30;;;;;;;4.47;3.38;;;24.90;99.90;;;;;;12508993;28;20265;-39
2021/09/08 16:45:32;;;;;;;4.88;3.40;;;24.80;99.90;;;;;;12508925;28;20691;-40
2021/09/08 16:51:35;;;;;;;4.07;3.07;;;24.50;99.90;;;;;;12512606;28;20093;-40
2021/09/08 16:57:39;;;;;;;4.40;3.22;;;24.30;99.90;;;;;;12507440;28;20124;-39
2021/09/08 17:03:41;;;;;;;4.70;3.17;;;24.00;99.90;;;;;;12511139;28;20371;-41
2021/09/08 17:09:43;;;;;;;5.47;3.27;;;23.80;99.90;;;;;;12508911;28;20056;-40
2021/09/08 17:15:45;;;;;;;5.32;3.00;;;23.50;99.90;;;;;;12505042;28;20410;-38
2021/09/08 17:21:49;;;;;;;7.75;3.33;;;23.20;99.90;;;;;;12508255;28;20069;-39
2021/09/08 17:27:51;;;;;;;6.07;3.20;;;23.10;99.90;;;;;;12505415;28;20088;-41
2021/09/08 17:33:53;;;;;;;5.93;2.85;;;22.80;99.90;;;;;;12509109;28;20042;-38
2021/09/08 17:40:02;;;;;;;7.53;3.38;;;22.60;99.90;;;;;;12508073;28;20076;-39
2021/09/08 17:46:05;;;;;;;6.03;2.88;;;22.50;99.90;;;;;;12503248;28;20136;-38
2021/09/08 17:52:07;;;;;;;4.68;3.45;;;22.50;99.90;;;;;;12505020;28;20056;-38
2021/09/08 17:58:13;;;;;;;8.43;3.20;;;22.30;99.90;;;;;;12506231;28;20072;-38
2021/09/08 18:04:16;;;;;;;8.38;3.38;;;22.10;99.90;;;;;;12507416;28;20049;-38
2021/09/08 18:10:18;;;;;;;5.53;3.20;;;22.10;99.90;;;;;;12504111;28;20139;-37
2021/09/08 18:16:20;;;;;;;5.68;3.13;;;21.70;99.90;;;;;;12505473;28;20072;-39
2021/09/08 18:22:22;;;;;;;6.35;3.42;;;21.40;99.90;;;;;;12504257;28;20664;-38
2021/09/08 18:28:24;;;;;;;5.50;3.75;;;21.30;99.90;;;;;;12515041;28;20391;-37
2021/09/08 18:34:26;;;;;;;6.47;3.53;;;21.00;99.90;;;;;;12518339;28;20378;-38
2021/09/08 18:40:28;;;;;;;7.72;4.00;;;20.90;99.90;;;;;;12517845;28;20203;-38
2021/09/08 18:46:31;;;;;;;6.10;4.07;;;20.90;99.90;;;;;;12518713;28;20048;-38
2021/09/08 18:52:34;;;;;;;9.73;4.50;;;20.70;99.90;;;;;;12521322;28;20052;-39
2021/09/08 18:58:36;;;;;;;9.07;3.70;;;20.60;99.90;;;;;;12519729;28;20057;-37
2021/09/08 19:04:38;;;;;;;7.05;3.80;;;20.60;99.90;;;;;;12519317;28;20080;-39
2021/09/08 19:10:40;;;;;;;7.35;4.10;;;20.40;99.90;;;;;;12517617;28;20065;-40
2021/09/08 19:16:41;;;;;;;5.03;2.88;;;20.30;99.90;;;;;;12514949;28;20321;-41
2021/09/08 19:22:44;;;;;;;6.57;4.18;;;20.30;99.90;;;;;;12499475;28;20162;-38
2021/09/08 19:28:46;;;;;;;8.57;4.40;;;20.10;99.90;;;;;;12517209;28;20076;-38
2021/09/08 19:34:48;;;;;;;6.40;4.20;;;20.00;99.90;;;;;;12516309;28;20052;-37
2021/09/08 19:40:51;;;;;;;6.63;4.38;;;19.80;99.90;;;;;;12514890;28;20041;-39
2021/09/08 19:46:59;;;;;;;6.37;4.43;;;19.70;99.90;;;;;;12519665;28;20041;-37
2021/09/08 19:53:01;;;;;;;7.10;4.85;;;19.70;99.90;;;;;;12512865;28;20487;-38
2021/09/08 19:59:03;;;;;;;7.47;4.78;;;19.60;99.90;;;;;;12515749;28;20049;-39
2021/09/08 20:05:05;;;;;;;10.52;5.20;;;19.60;99.90;;;;;;12512767;28;20057;-38
2021/09/08 20:11:08;;;;;;;7.72;5.10;;;19.60;99.90;;;;;;12509480;28;20057;-39
2021/09/08 20:17:10;;;;;;;9.38;5.55;;;19.60;99.90;;;;;;12508045;28;20465;-39
2021/09/08 20:23:12;;;;;;;11.50;5.57;;;19.60;99.90;;;;;;12511305;28;20049;-38
2021/09/08 20:29:14;;;;;;;8.32;5.22;;;19.60;99.90;;;;;;12512474;28;20053;-40
2021/09/08 20:35:16;;;;;;;10.60;5.40;;;19.60;99.90;;;;;;12505695;28;20049;-38
2021/09/08 20:41:19;;;;;;;8.73;5.75;;;19.60;99.90;;;;;;12507265;28;20051;-37
2021/09/08 20:47:21;;;;;;;9.17;5.73;;;19.60;99.90;;;;;;12512963;28;20067;-37
2021/09/08 20:53:23;;;;;;;10.85;6.18;;;19.30;99.90;;;;;;12508928;28;20049;-44
2021/09/08 20:59:25;;;;;;;11.57;6.78;;;19.20;99.90;;;;;;12511504;28;20485;-39
2021/09/08 21:05:27;;;;;;;10.90;6.25;;;19.10;99.90;;;;;;12507669;28;20059;-38
2021/09/08 21:11:32;;;;;;;9.05;6.28;;;19.10;99.90;;;;;;12506255;28;20049;-39
2021/09/08 21:17:38;;;;;;;11.27;6.72;;;19.00;99.90;;;;;;12486130;28;20465;-37
2021/09/08 21:23:40;;;;;;;10.55;6.78;;;18.90;99.90;;;;;;12504641;28;20563;-39
2021/09/08 21:29:42;;;;;;;11.73;6.88;;;18.80;99.90;;;;;;12506689;28;20651;-38
2021/09/08 21:35:51;;;;;;;8.90;6.82;;;18.70;99.90;;;;;;12502361;28;20042;-38
2021/09/08 21:41:53;;;;;;;12.02;7.07;;;18.60;99.90;;;;;;12503560;28;20060;-39
2021/09/08 21:47:56;;;;;;;13.20;8.00;;;18.70;99.90;;;;;;12503575;28;20485;-38
2021/09/08 21:53:58;;;;;;;11.37;8.03;;;18.80;99.90;;;;;;12505550;28;20139;-38
2021/09/08 22:00:00;;;;;;;11.77;7.13;;;18.80;99.90;;;;;;12504811;28;20061;-38
2021/09/08 22:06:02;;;;;;;14.85;8.00;;;18.70;99.90;;;;;;12507596;28;20148;-38
2021/09/08 22:12:04;;;;;;;9.15;7.65;;;18.70;99.90;;;;;;12502095;28;20548;-38
2021/09/08 22:18:06;;;;;;;10.43;8.55;;;18.90;99.90;;;;;;12498928;28;20086;-38
2021/09/08 22:24:08;;;;;;;12.43;7.97;;;18.90;99.90;;;;;;12500297;28;20436;-38
2021/09/08 22:30:11;;;;;;;13.00;8.10;;;18.90;99.90;;;;;;12495331;28;20045;-39
2021/09/08 22:36:13;;;;;;;13.85;9.10;;;18.90;99.90;;;;;;12501226;28;20416;-38
2021/09/08 22:42:15;;;;;;;14.35;8.65;;;18.80;99.90;;;;;;12499054;28;20045;-37
2021/09/08 22:48:16;;;;;;;12.48;8.35;;;18.70;99.90;;;;;;12502063;28;20110;-38
2021/09/08 22:54:18;;;;;;;10.93;8.43;;;18.60;99.90;;;;;;12500823;28;20049;-38
2021/09/08 23:00:21;;;;;;;12.05;7.90;;;18.50;99.90;;;;;;12502690;28;20575;-39
2021/09/08 23:06:23;;;;;;;13.43;8.18;;;18.30;99.90;;;;;;12509614;28;20505;-39
2021/09/08 23:12:25;;;;;;;13.77;8.32;;;18.20;99.90;;;;;;12504932;28;20049;-39
2021/09/08 23:18:27;;;;;;;17.40;8.02;;;18.10;99.90;;;;;;12507830;28;20056;-38
2021/09/08 23:24:29;;;;;;;11.18;8.48;;;18.10;99.90;;;;;;12492925;28;20800;-38
2021/09/08 23:30:31;;;;;;;12.65;8.30;;;18.00;99.90;;;;;;12506859;28;20048;-37
2021/09/08 23:36:33;;;;;;;11.35;8.77;;;17.90;99.90;;;;;;12510160;28;20145;-37
2021/09/08 23:42:34;;;;;;;15.18;8.98;;;17.80;99.90;;;;;;12509951;28;20497;-39
2021/09/08 23:48:36;;;;;;;11.95;8.73;;;17.70;99.90;;;;;;12503161;28;20469;-38
2021/09/08 23:54:40;;;;;;;13.57;9.02;;;17.60;99.90;;;;;;12510102;28;20378;-37
